Time;durP1;ratioP1;P1;durP2;ratioP2;P2;SDS_P1;SDS_P2;PMS_P1;PMS_P2;Temp;Humidity;BMP_temperature;BMP_pressure;BME280_temperature;BME280_humidity;BME280_pressure;Samples;Min_cycle;Max_cycle;Signal;HPM_P1;HPM_P2
2021/06/17 00:02:17;;;;;;;8.33;7.50;;;;;;;;;;5096604;28;20429;-75
2021/06/17 00:04:43;;;;;;;8.67;7.97;;;;;;;;;;5111129;28;20741;-74
2021/06/17 00:07:13;;;;;;;8.87;8.00;;;;;;;;;;5117337;28;20753;-74
2021/06/17 00:09:39;;;;;;;8.53;7.83;;;;;;;;;;5117364;28;20535;-74
2021/06/17 00:12:05;;;;;;;9.30;8.17;;;;;;;;;;5112869;28;20432;-72
2021/06/17 00:14:33;;;;;;;9.47;8.47;;;;;;;;;;5096845;28;20417;-74
2021/06/17 00:17:00;;;;;;;8.53;7.23;;;;;;;;;;5095652;28;20853;-75
2021/06/17 00:19:26;;;;;;;8.40;7.70;;;;;;;;;;5096711;28;20409;-76
2021/06/17 00:21:52;;;;;;;8.33;7.60;;;;;;;;;;5096829;28;20813;-74
2021/06/17 00:24:19;;;;;;;9.50;8.60;;;;;;;;;;5096334;28;20496;-75
2021/06/17 00:26:45;;;;;;;9.00;8.20;;;;;;;;;;5096407;28;20413;-75
2021/06/17 00:29:11;;;;;;;8.03;7.30;;;;;;;;;;5101197;28;20445;-75
2021/06/17 00:31:39;;;;;;;8.07;7.47;;;;;;;;;;5095867;28;20439;-75
2021/06/17 00:34:08;;;;;;;8.10;7.47;;;;;;;;;;5096569;28;20751;-75
2021/06/17 00:36:37;;;;;;;7.60;6.90;;;;;;;;;;5098404;28;20410;-75
2021/06/17 00:39:06;;;;;;;7.77;7.20;;;;;;;;;;5116668;28;20519;-75
2021/06/17 00:41:33;;;;;;;8.00;7.20;;;;;;;;;;5116498;28;20436;-75
2021/06/17 00:43:59;;;;;;;7.87;7.20;;;;;;;;;;5115287;28;20916;-76
2021/06/17 00:46:25;;;;;;;7.90;7.20;;;;;;;;;;5099582;28;20421;-74
2021/06/17 00:48:52;;;;;;;7.40;6.90;;;;;;;;;;5095686;28;20525;-75
2021/06/17 00:51:18;;;;;;;8.10;7.60;;;;;;;;;;5096121;28;20852;-75
2021/06/17 00:53:44;;;;;;;8.27;7.60;;;;;;;;;;5096052;28;20454;-74
2021/06/17 00:56:10;;;;;;;7.17;6.67;;;;;;;;;;5095893;28;20428;-75
2021/06/17 00:58:37;;;;;;;7.80;7.10;;;;;;;;;;5095728;28;20849;-75
2021/06/17 01:01:03;;;;;;;7.70;7.10;;;;;;;;;;5095657;28;20417;-75
2021/06/17 01:03:29;;;;;;;7.10;6.40;;;;;;;;;;5099209;28;20409;-75
2021/06/17 01:05:55;;;;;;;7.93;7.30;;;;;;;;;;5115931;27;20416;-74
2021/06/17 01:08:24;;;;;;;8.37;7.17;;;;;;;;;;5114875;28;20440;-75
2021/06/17 01:11:10;;;;;;;7.40;6.90;;;;;;;;;;5115734;28;20799;-76
2021/06/17 01:13:51;;;;;;;7.23;6.73;;;;;;;;;;5099130;28;20409;-74
2021/06/17 01:16:20;;;;;;;7.27;6.73;;;;;;;;;;5102249;28;20507;-75
2021/06/17 01:18:51;;;;;;;7.20;6.53;;;;;;;;;;5116242;28;20770;-75
2021/06/17 01:21:35;;;;;;;7.53;6.83;;;;;;;;;;5115745;28;20460;-75
2021/06/17 01:24:07;;;;;;;7.30;6.80;;;;;;;;;;5115557;28;20413;-75
2021/06/17 01:26:36;;;;;;;8.27;6.90;;;;;;;;;;5115961;28;20763;-73
2021/06/17 01:29:03;;;;;;;7.30;6.60;;;;;;;;;;5109571;28;20449;-73
2021/06/17 01:31:31;;;;;;;7.37;6.77;;;;;;;;;;5095099;28;20983;-73
2021/06/17 01:33:58;;;;;;;7.00;6.40;;;;;;;;;;5095429;28;20803;-74
2021/06/17 01:36:25;;;;;;;7.77;7.07;;;;;;;;;;5095894;28;20441;-73
2021/06/17 01:38:53;;;;;;;7.43;6.83;;;;;;;;;;5095192;28;20417;-75
2021/06/17 01:41:20;;;;;;;7.07;6.37;;;;;;;;;;5095131;28;20506;-74
2021/06/17 01:43:47;;;;;;;6.93;6.33;;;;;;;;;;5095160;28;20409;-76
2021/06/17 01:46:13;;;;;;;6.97;6.43;;;;;;;;;;5095068;28;20504;-74
2021/06/17 01:48:40;;;;;;;7.30;6.60;;;;;;;;;;5095364;28;20829;-75
2021/06/17 01:51:06;;;;;;;8.47;6.40;;;;;;;;;;5095000;28;20429;-75
2021/06/17 01:53:32;;;;;;;6.33;5.83;;;;;;;;;;5108405;28;20816;-75
2021/06/17 01:55:59;;;;;;;6.33;5.83;;;;;;;;;;5094947;28;20405;-75
2021/06/17 01:58:26;;;;;;;6.83;6.23;;;;;;;;;;5093137;28;20405;-74
2021/06/17 02:00:54;;;;;;;6.33;5.73;;;;;;;;;;5094521;28;20488;-75
2021/06/17 02:03:21;;;;;;;6.13;5.70;;;;;;;;;;5096592;28;20492;-73
2021/06/17 02:05:48;;;;;;;6.90;6.40;;;;;;;;;;5114782;28;20408;-73
2021/06/17 02:08:16;;;;;;;7.40;6.30;;;;;;;;;;5104674;28;20512;-74
2021/06/17 02:10:42;;;;;;;6.53;5.93;;;;;;;;;;5094352;28;20779;-74
2021/06/17 02:13:11;;;;;;;7.40;6.70;;;;;;;;;;5094168;28;20469;-74
2021/06/17 02:15:37;;;;;;;7.10;6.40;;;;;;;;;;5094088;28;20432;-74
2021/06/17 02:18:03;;;;;;;7.10;6.40;;;;;;;;;;5094117;28;20424;-75
2021/06/17 02:20:30;;;;;;;6.63;6.10;;;;;;;;;;5094102;28;20409;-74
2021/06/17 02:23:03;;;;;;;6.03;5.60;;;;;;;;;;5094239;28;20434;-74
2021/06/17 02:25:29;;;;;;;6.30;5.73;;;;;;;;;;5094584;28;20432;-74
2021/06/17 02:27:59;;;;;;;5.87;5.37;;;;;;;;;;5096971;28;20534;-75
2021/06/17 02:30:26;;;;;;;5.93;5.47;;;;;;;;;;5095670;28;20452;-75
2021/06/17 02:32:54;;;;;;;7.00;6.40;;;;;;;;;;5093583;28;20516;-75
2021/06/17 02:35:22;;;;;;;7.10;6.50;;;;;;;;;;5094054;28;20460;-75
2021/06/17 02:37:51;;;;;;;7.50;6.70;;;;;;;;;;5093580;28;20885;-74
2021/06/17 02:40:18;;;;;;;7.13;6.60;;;;;;;;;;5094260;28;20424;-75
2021/06/17 02:42:44;;;;;;;6.50;6.00;;;;;;;;;;5093850;28;20433;-75
2021/06/17 02:45:11;;;;;;;6.80;6.30;;;;;;;;;;5094131;28;20444;-74
2021/06/17 02:47:38;;;;;;;6.60;5.73;;;;;;;;;;5093622;28;20436;-75
2021/06/17 02:50:05;;;;;;;6.77;6.27;;;;;;;;;;5093565;28;20456;-75
2021/06/17 02:52:31;;;;;;;6.07;5.60;;;;;;;;;;5093529;28;20440;-75
2021/06/17 02:54:57;;;;;;;5.87;5.37;;;;;;;;;;5093765;28;20898;-75
2021/06/17 02:57:25;;;;;;;6.97;6.37;;;;;;;;;;5093664;28;20425;-75
2021/06/17 02:59:58;;;;;;;6.33;5.83;;;;;;;;;;5093364;28;20408;-75
2021/06/17 03:02:35;;;;;;;5.67;5.17;;;;;;;;;;5093262;28;20917;-74
2021/06/17 03:05:20;;;;;;;6.60;6.00;;;;;;;;;;5109289;28;20881;-75
2021/06/17 03:08:08;;;;;;;11.40;6.30;;;;;;;;;;5107997;28;20440;-75
2021/06/17 03:10:35;;;;;;;11.03;6.27;;;;;;;;;;5093615;28;20874;-74
2021/06/17 03:13:03;;;;;;;6.83;6.20;;;;;;;;;;5093142;28;20936;-75
2021/06/17 03:15:31;;;;;;;6.50;6.00;;;;;;;;;;5093337;28;20405;-74
2021/06/17 03:18:00;;;;;;;7.10;5.90;;;;;;;;;;5092968;28;20416;-75
2021/06/17 03:20:27;;;;;;;6.77;6.13;;;;;;;;;;5093330;28;20413;-75
2021/06/17 03:22:54;;;;;;;7.00;6.30;;;;;;;;;;5093125;28;20524;-75
2021/06/17 03:25:22;;;;;;;6.07;5.57;;;;;;;;;;5093359;28;20405;-75
2021/06/17 03:27:50;;;;;;;5.77;5.27;;;;;;;;;;5103379;28;20420;-74
2021/06/17 03:30:17;;;;;;;7.13;6.20;;;;;;;;;;5096273;28;20949;-75
2021/06/17 03:32:45;;;;;;;7.13;5.70;;;;;;;;;;5092462;28;20440;-74
2021/06/17 03:35:11;;;;;;;6.50;5.97;;;;;;;;;;5093311;28;20410;-75
2021/06/17 03:37:38;;;;;;;6.37;5.80;;;;;;;;;;5093079;28;20420;-76
2021/06/17 03:40:05;;;;;;;6.23;5.77;;;;;;;;;;5093450;28;20418;-74
2021/06/17 03:42:31;;;;;;;7.10;6.40;;;;;;;;;;5093107;28;20439;-75
2021/06/17 03:44:59;;;;;;;6.50;5.90;;;;;;;;;;5092928;28;20421;-74
2021/06/17 03:47:25;;;;;;;6.70;6.10;;;;;;;;;;5093357;28;20428;-75
2021/06/17 03:49:52;;;;;;;6.93;6.10;;;;;;;;;;5092791;28;20513;-75
2021/06/17 03:52:19;;;;;;;6.97;6.30;;;;;;;;;;5092831;28;20565;-75
2021/06/17 03:54:45;;;;;;;6.30;5.70;;;;;;;;;;5093061;28;20405;-74
2021/06/17 03:57:11;;;;;;;6.60;6.13;;;;;;;;;;5093375;28;20416;-75
2021/06/17 03:59:42;;;;;;;8.90;6.20;;;;;;;;;;5091678;28;20432;-74
2021/06/17 04:02:08;;;;;;;6.87;6.27;;;;;;;;;;5093672;28;20520;-75
2021/06/17 04:04:34;;;;;;;7.47;6.80;;;;;;;;;;5106810;28;20458;-75
2021/06/17 04:07:02;;;;;;;7.40;6.80;;;;;;;;;;5114363;28;20505;-75
2021/06/17 04:09:30;;;;;;;7.47;6.40;;;;;;;;;;5092251;28;20452;-76
2021/06/17 04:11:57;;;;;;;6.90;6.20;;;;;;;;;;5093011;28;20448;-74
2021/06/17 04:14:24;;;;;;;7.20;6.60;;;;;;;;;;5092298;28;20405;-74
2021/06/17 04:16:51;;;;;;;6.60;5.73;;;;;;;;;;5092855;28;20470;-75
2021/06/17 04:19:20;;;;;;;6.10;5.60;;;;;;;;;;5092473;28;20736;-73
2021/06/17 04:21:46;;;;;;;7.73;6.00;;;;;;;;;;5093744;28;20450;-75
2021/06/17 04:24:14;;;;;;;6.53;6.03;;;;;;;;;;5105604;28;20742;-75
2021/06/17 04:26:40;;;;;;;6.50;5.93;;;;;;;;;;5106993;28;20412;-75
2021/06/17 04:29:06;;;;;;;6.70;6.10;;;;;;;;;;5098399;28;20530;-75
2021/06/17 04:31:32;;;;;;;6.63;6.00;;;;;;;;;;5092500;28;20893;-75
2021/06/17 04:33:58;;;;;;;6.50;6.00;;;;;;;;;;5092750;28;20401;-75
2021/06/17 04:36:24;;;;;;;6.47;5.70;;;;;;;;;;5092465;28;20413;-74
2021/06/17 04:38:50;;;;;;;6.37;5.87;;;;;;;;;;5092290;28;20768;-75
2021/06/17 04:41:17;;;;;;;7.23;6.37;;;;;;;;;;5092575;28;20836;-73
2021/06/17 04:43:43;;;;;;;6.53;5.80;;;;;;;;;;5092795;28;20474;-75
2021/06/17 04:46:09;;;;;;;7.43;6.83;;;;;;;;;;5096301;28;20451;-74
2021/06/17 04:48:37;;;;;;;6.60;6.00;;;;;;;;;;5095780;28;20497;-74
2021/06/17 04:51:07;;;;;;;6.93;6.23;;;;;;;;;;5095979;28;20467;-74
2021/06/17 04:53:35;;;;;;;7.30;6.50;;;;;;;;;;5095834;28;20828;-74
2021/06/17 04:56:01;;;;;;;9.00;6.63;;;;;;;;;;5096271;28;20879;-74
2021/06/17 04:58:27;;;;;;;8.90;6.20;;;;;;;;;;5095681;28;20526;-75
2021/06/17 05:00:54;;;;;;;7.23;6.53;;;;;;;;;;5095759;28;20401;-74
2021/06/17 05:03:20;;;;;;;8.87;7.40;;;;;;;;;;5097843;28;20410;-75
2021/06/17 05:05:48;;;;;;;6.67;6.07;;;;;;;;;;5116073;28;20754;-74
2021/06/17 05:10:48;;;;;;;7.47;6.33;;;;;;;;;;5095716;28;20518;-75
2021/06/17 05:13:15;;;;;;;7.40;6.67;;;;;;;;;;5095373;28;20413;-75
2021/06/17 05:15:41;;;;;;;7.13;6.50;;;;;;;;;;5095387;28;20409;-75
2021/06/17 05:18:07;;;;;;;8.03;7.30;;;;;;;;;;5095444;28;20429;-74
2021/06/17 05:20:33;;;;;;;7.47;6.80;;;;;;;;;;5095387;28;20740;-75
2021/06/17 05:22:59;;;;;;;6.40;5.80;;;;;;;;;;5095034;28;20444;-74
2021/06/17 05:25:25;;;;;;;6.87;6.17;;;;;;;;;;5095135;28;20421;-75
2021/06/17 05:27:51;;;;;;;9.13;6.70;;;;;;;;;;5097735;28;20425;-75
2021/06/17 05:30:17;;;;;;;7.60;7.00;;;;;;;;;;5097462;28;20548;-75
2021/06/17 05:32:44;;;;;;;7.80;6.67;;;;;;;;;;5094999;28;20429;-75
2021/06/17 05:35:10;;;;;;;7.80;7.20;;;;;;;;;;5094868;28;20433;-75
2021/06/17 05:37:36;;;;;;;8.50;7.53;;;;;;;;;;5094850;28;20409;-76
2021/06/17 05:40:02;;;;;;;8.13;7.53;;;;;;;;;;5095069;28;20413;-76
2021/06/17 05:42:30;;;;;;;8.63;7.80;;;;;;;;;;5095144;28;20778;-76
2021/06/17 05:44:56;;;;;;;8.13;7.40;;;;;;;;;;5094535;28;20406;-76
2021/06/17 05:47:22;;;;;;;8.80;7.43;;;;;;;;;;5094920;28;20421;-75
2021/06/17 05:49:48;;;;;;;8.53;7.80;;;;;;;;;;5094946;28;20988;-74
2021/06/17 05:52:14;;;;;;;8.10;7.50;;;;;;;;;;5094702;28;20518;-74
2021/06/17 05:54:40;;;;;;;7.77;7.10;;;;;;;;;;5094124;28;20405;-75
2021/06/17 05:57:07;;;;;;;8.83;7.97;;;;;;;;;;5094970;28;20770;-74
2021/06/17 05:59:33;;;;;;;8.00;7.30;;;;;;;;;;5094521;28;20417;-75
2021/06/17 06:01:59;;;;;;;7.47;6.73;;;;;;;;;;5094727;28;20436;-75
2021/06/17 06:04:25;;;;;;;9.20;7.47;;;;;;;;;;5105657;28;20416;-75
2021/06/17 06:06:51;;;;;;;8.53;7.60;;;;;;;;;;5114778;28;20437;-75
2021/06/17 06:09:17;;;;;;;7.70;7.10;;;;;;;;;;5096205;28;20826;-75
2021/06/17 06:11:43;;;;;;;8.20;7.40;;;;;;;;;;5094492;28;20430;-76
2021/06/17 06:14:09;;;;;;;7.60;7.00;;;;;;;;;;5094113;28;20842;-75
2021/06/17 06:16:35;;;;;;;8.87;7.93;;;;;;;;;;5094410;28;20486;-75
2021/06/17 06:19:01;;;;;;;8.87;8.07;;;;;;;;;;5094202;28;20770;-75
2021/06/17 06:21:28;;;;;;;8.37;7.67;;;;;;;;;;5094168;28;20433;-75
2021/06/17 06:23:54;;;;;;;9.20;7.97;;;;;;;;;;5094160;28;20417;-76
2021/06/17 06:26:20;;;;;;;8.07;7.27;;;;;;;;;;5094161;28;20421;-76
2021/06/17 06:28:46;;;;;;;8.10;7.23;;;;;;;;;;5099107;28;20529;-75
2021/06/17 06:31:13;;;;;;;8.27;7.60;;;;;;;;;;5094032;28;20528;-75
2021/06/17 06:33:39;;;;;;;9.10;8.23;;;;;;;;;;5093577;28;20429;-75
2021/06/17 06:36:05;;;;;;;8.40;7.80;;;;;;;;;;5093710;28;20763;-75
2021/06/17 06:38:31;;;;;;;8.70;8.07;;;;;;;;;;5097547;28;20420;-76
2021/06/17 06:40:59;;;;;;;8.80;8.20;;;;;;;;;;5091101;28;20825;-75
2021/06/17 06:43:25;;;;;;;9.77;9.00;;;;;;;;;;5097409;28;20453;-75
2021/06/17 06:45:51;;;;;;;10.23;8.73;;;;;;;;;;5094725;28;20450;-74
2021/06/17 06:48:18;;;;;;;8.90;8.20;;;;;;;;;;5089853;28;20441;-75
2021/06/17 06:50:44;;;;;;;9.60;8.60;;;;;;;;;;5090488;28;20468;-75
2021/06/17 06:53:10;;;;;;;9.90;8.77;;;;;;;;;;5093417;28;20464;-73
2021/06/17 06:55:36;;;;;;;9.73;8.93;;;;;;;;;;5101797;27;20407;-73
2021/06/17 06:58:03;;;;;;;9.03;8.23;;;;;;;;;;5090941;28;20413;-75
2021/06/17 07:00:29;;;;;;;9.87;9.07;;;;;;;;;;5090021;28;20429;-76
2021/06/17 07:02:55;;;;;;;9.67;8.90;;;;;;;;;;5089575;28;20448;-74
2021/06/17 07:05:21;;;;;;;10.03;9.17;;;;;;;;;;5096281;28;20466;-74
2021/06/17 07:07:47;;;;;;;9.27;8.43;;;;;;;;;;5106986;28;20523;-75
2021/06/17 07:10:13;;;;;;;9.70;8.90;;;;;;;;;;5097329;28;20501;-76
2021/06/17 07:12:40;;;;;;;10.60;9.70;;;;;;;;;;5089551;28;20487;-73
2021/06/17 07:15:06;;;;;;;10.40;9.50;;;;;;;;;;5089388;28;20442;-73
2021/06/17 07:17:32;;;;;;;10.30;9.47;;;;;;;;;;5089072;28;20414;-74
2021/06/17 07:19:58;;;;;;;9.47;8.67;;;;;;;;;;5089644;28;20527;-75
2021/06/17 07:22:25;;;;;;;9.93;9.23;;;;;;;;;;5089175;28;20433;-76
2021/06/17 07:24:53;;;;;;;9.70;9.00;;;;;;;;;;5089332;28;20433;-76
2021/06/17 07:27:19;;;;;;;10.70;9.73;;;;;;;;;;5089256;28;20526;-75
2021/06/17 07:29:45;;;;;;;8.93;8.13;;;;;;;;;;5095739;28;20457;-75
2021/06/17 07:32:11;;;;;;;10.13;9.30;;;;;;;;;;5095730;28;20435;-76
2021/06/17 07:34:37;;;;;;;10.13;9.23;;;;;;;;;;5109575;28;20431;-76
2021/06/17 07:37:03;;;;;;;10.23;9.23;;;;;;;;;;5109335;28;20413;-76
2021/06/17 07:39:30;;;;;;;10.43;9.53;;;;;;;;;;5094794;28;20990;-76
2021/06/17 07:41:57;;;;;;;10.50;9.60;;;;;;;;;;5088957;28;20469;-75
2021/06/17 07:44:23;;;;;;;9.50;8.60;;;;;;;;;;5089655;28;20429;-76
2021/06/17 07:46:49;;;;;;;10.03;9.23;;;;;;;;;;5095402;28;20408;-76
2021/06/17 07:49:15;;;;;;;11.77;10.67;;;;;;;;;;5096324;28;20468;-76
2021/06/17 07:51:41;;;;;;;14.63;9.87;;;;;;;;;;5091650;28;20505;-78
2021/06/17 07:54:07;;;;;;;10.67;9.73;;;;;;;;;;5089496;28;20957;-77
2021/06/17 07:56:33;;;;;;;9.77;8.97;;;;;;;;;;5089034;28;20413;-74
2021/06/17 07:59:00;;;;;;;9.80;9.10;;;;;;;;;;5088900;28;20466;-76
2021/06/17 08:01:26;;;;;;;10.20;9.30;;;;;;;;;;5088691;28;21014;-75
2021/06/17 08:03:52;;;;;;;11.20;9.70;;;;;;;;;;5095735;28;20968;-76
2021/06/17 08:06:18;;;;;;;10.93;9.30;;;;;;;;;;5109233;28;20417;-76
2021/06/17 08:08:45;;;;;;;9.83;8.93;;;;;;;;;;5095456;28;21070;-75
2021/06/17 08:11:11;;;;;;;10.17;9.23;;;;;;;;;;5089080;28;20826;-75
2021/06/17 08:13:37;;;;;;;10.47;9.57;;;;;;;;;;5088757;28;20881;-76
2021/06/17 08:16:04;;;;;;;10.33;9.60;;;;;;;;;;5088664;28;20459;-75
2021/06/17 08:18:30;;;;;;;11.50;10.40;;;;;;;;;;5089540;28;20410;-76
2021/06/17 08:20:58;;;;;;;10.13;9.33;;;;;;;;;;5092829;28;20425;-76
2021/06/17 08:23:25;;;;;;;10.77;9.70;;;;;;;;;;5092769;28;20425;-76
2021/06/17 08:25:51;;;;;;;12.30;9.90;;;;;;;;;;5092640;28;20498;-76
2021/06/17 08:28:17;;;;;;;11.10;10.10;;;;;;;;;;5097640;28;20412;-76
2021/06/17 08:30:44;;;;;;;11.20;10.10;;;;;;;;;;5092392;28;20456;-75
2021/06/17 08:33:10;;;;;;;10.83;9.80;;;;;;;;;;5093250;28;20429;-75
2021/06/17 08:35:36;;;;;;;14.70;9.93;;;;;;;;;;5112893;28;20905;-75
2021/06/17 08:38:03;;;;;;;10.83;9.90;;;;;;;;;;5101133;28;20800;-76
2021/06/17 08:40:34;;;;;;;10.70;9.80;;;;;;;;;;5092681;28;20421;-75
2021/06/17 08:43:01;;;;;;;11.87;10.90;;;;;;;;;;5091917;28;20433;-76
2021/06/17 08:45:27;;;;;;;11.87;10.70;;;;;;;;;;5092613;28;20429;-75
2021/06/17 08:47:53;;;;;;;10.87;9.90;;;;;;;;;;5092172;28;20444;-76
2021/06/17 08:50:19;;;;;;;12.50;9.50;;;;;;;;;;5092358;28;20464;-76
2021/06/17 08:52:46;;;;;;;10.80;9.63;;;;;;;;;;5091880;28;21110;-76
2021/06/17 08:55:18;;;;;;;11.90;10.70;;;;;;;;;;5092311;28;20813;-76
2021/06/17 08:57:47;;;;;;;10.90;9.67;;;;;;;;;;5091684;28;20762;-76
2021/06/17 09:00:16;;;;;;;11.67;10.57;;;;;;;;;;5092224;28;20424;-76
2021/06/17 09:02:42;;;;;;;14.93;11.10;;;;;;;;;;5091877;28;20437;-76
2021/06/17 09:05:15;;;;;;;11.37;10.17;;;;;;;;;;5109152;28;20420;-76
2021/06/17 09:07:43;;;;;;;12.43;10.60;;;;;;;;;;5106912;28;20516;-76
2021/06/17 09:10:09;;;;;;;11.00;10.10;;;;;;;;;;5097623;28;20559;-75
2021/06/17 09:12:45;;;;;;;10.93;9.90;;;;;;;;;;5093131;28;20483;-78
2021/06/17 09:15:11;;;;;;;11.03;10.17;;;;;;;;;;5091853;28;20409;-76
2021/06/17 09:17:38;;;;;;;11.23;10.13;;;;;;;;;;5091524;28;20998;-76
2021/06/17 09:20:04;;;;;;;11.50;10.53;;;;;;;;;;5091858;28;20513;-76
2021/06/17 09:22:30;;;;;;;11.57;10.60;;;;;;;;;;5091348;28;20436;-76
2021/06/17 09:24:57;;;;;;;11.80;10.23;;;;;;;;;;5091307;28;20440;-75
2021/06/17 09:27:23;;;;;;;10.57;9.80;;;;;;;;;;5091487;28;20413;-75
2021/06/17 09:29:50;;;;;;;11.43;10.27;;;;;;;;;;5095897;28;20467;-75
2021/06/17 09:32:27;;;;;;;12.07;11.13;;;;;;;;;;5110751;28;20424;-76
2021/06/17 09:34:53;;;;;;;12.30;11.00;;;;;;;;;;5111606;28;20456;-74
2021/06/17 09:37:28;;;;;;;12.77;11.57;;;;;;;;;;5102828;28;20828;-76
2021/06/17 09:39:54;;;;;;;11.60;10.50;;;;;;;;;;5095377;28;20504;-74
2021/06/17 09:42:24;;;;;;;11.27;10.23;;;;;;;;;;5091147;28;20437;-76
2021/06/17 09:44:50;;;;;;;10.60;9.80;;;;;;;;;;5091308;28;20490;-76
2021/06/17 09:47:24;;;;;;;11.67;10.77;;;;;;;;;;5097017;28;20451;-75
2021/06/17 09:49:56;;;;;;;11.00;10.30;;;;;;;;;;5093106;28;20459;-75
2021/06/17 09:52:37;;;;;;;17.63;11.30;;;;;;;;;;5091125;28;20433;-75
2021/06/17 09:55:03;;;;;;;11.07;10.20;;;;;;;;;;5098164;28;20415;-75
2021/06/17 09:57:34;;;;;;;11.40;10.60;;;;;;;;;;5111110;28;20461;-75
2021/06/17 10:00:07;;;;;;;12.33;11.03;;;;;;;;;;5111437;28;20404;-76
2021/06/17 10:02:35;;;;;;;10.97;10.17;;;;;;;;;;5111137;28;20428;-76
2021/06/17 10:05:26;;;;;;;10.93;10.07;;;;;;;;;;5111001;28;20416;-76
2021/06/17 10:07:52;;;;;;;11.53;10.53;;;;;;;;;;5104419;28;20797;-77
2021/06/17 10:10:22;;;;;;;10.47;9.33;;;;;;;;;;5089459;28;20450;-77
2021/06/17 10:12:48;;;;;;;20.23;18.90;;;;;;;;;;5090476;28;20434;-76
2021/06/17 10:15:14;;;;;;;11.53;10.50;;;;;;;;;;5090761;28;20440;-75
2021/06/17 10:17:40;;;;;;;10.37;9.57;;;;;;;;;;5090822;28;20445;-76
2021/06/17 10:20:08;;;;;;;9.80;9.03;;;;;;;;;;5090501;28;20477;-74
2021/06/17 10:22:37;;;;;;;9.47;8.63;;;;;;;;;;5090531;28;20514;-76
2021/06/17 10:25:04;;;;;;;9.10;8.30;;;;;;;;;;5090177;28;20409;-76
2021/06/17 10:27:31;;;;;;;8.73;8.20;;;;;;;;;;5090462;28;20406;-77
2021/06/17 10:29:57;;;;;;;9.50;8.80;;;;;;;;;;5107207;28;20464;-78
2021/06/17 10:32:37;;;;;;;8.47;7.67;;;;;;;;;;5091378;28;20811;-77
2021/06/17 10:35:05;;;;;;;8.73;8.17;;;;;;;;;;5090002;28;20444;-77
2021/06/17 10:37:32;;;;;;;8.70;7.90;;;;;;;;;;5097725;28;20417;-76
2021/06/17 10:40:02;;;;;;;8.13;7.57;;;;;;;;;;5092750;28;20845;-76
2021/06/17 10:42:33;;;;;;;8.23;7.73;;;;;;;;;;5090564;28;20441;-78
2021/06/17 10:44:59;;;;;;;8.10;7.60;;;;;;;;;;5090339;28;20956;-76
2021/06/17 10:47:41;;;;;;;7.90;7.30;;;;;;;;;;5090468;28;20417;-75
2021/06/17 10:50:11;;;;;;;7.87;7.47;;;;;;;;;;5097196;28;20456;-75
2021/06/17 10:52:38;;;;;;;8.53;7.83;;;;;;;;;;5111042;28;20429;-76
2021/06/17 10:55:09;;;;;;;8.73;7.73;;;;;;;;;;5110391;28;20477;-75
2021/06/17 10:57:52;;;;;;;8.40;7.80;;;;;;;;;;5110367;28;20417;-76
2021/06/17 11:00:25;;;;;;;8.37;7.57;;;;;;;;;;5110326;28;20800;-75
2021/06/17 11:02:55;;;;;;;9.00;8.20;;;;;;;;;;5110175;27;20477;-77
2021/06/17 11:05:30;;;;;;;8.50;7.63;;;;;;;;;;5097470;27;20467;-76
2021/06/17 11:08:15;;;;;;;7.70;7.20;;;;;;;;;;5103417;28;20800;-72
2021/06/17 11:10:43;;;;;;;7.50;6.97;;;;;;;;;;5108640;28;20487;-72
2021/06/17 11:13:09;;;;;;;7.50;7.00;;;;;;;;;;5096070;28;20941;-71
2021/06/17 11:15:37;;;;;;;7.73;7.33;;;;;;;;;;5089763;28;20414;-74
2021/06/17 11:18:03;;;;;;;7.77;7.27;;;;;;;;;;5089150;28;20771;-72
2021/06/17 11:20:36;;;;;;;7.87;7.37;;;;;;;;;;5089498;28;20409;-71
2021/06/17 11:23:02;;;;;;;11.23;7.40;;;;;;;;;;5089122;28;20501;-71
2021/06/17 11:25:33;;;;;;;7.93;7.37;;;;;;;;;;5089419;28;20421;-71
2021/06/17 11:28:00;;;;;;;7.80;7.30;;;;;;;;;;5092429;28;20815;-72
2021/06/17 11:30:38;;;;;;;9.93;9.33;;;;;;;;;;5104906;28;20567;-71
2021/06/17 11:33:19;;;;;;;8.03;7.50;;;;;;;;;;5096360;28;20539;-75
2021/06/17 11:35:57;;;;;;;6.77;6.37;;;;;;;;;;5089936;28;20410;-76
2021/06/17 11:38:24;;;;;;;6.93;6.53;;;;;;;;;;5092718;28;20409;-73
2021/06/17 11:40:50;;;;;;;7.63;7.07;;;;;;;;;;5089176;28;20800;-74
2021/06/17 11:43:26;;;;;;;7.43;6.93;;;;;;;;;;5089316;28;20444;-74
2021/06/17 11:45:53;;;;;;;7.00;6.60;;;;;;;;;;5089222;28;21048;-73
2021/06/17 11:48:21;;;;;;;7.57;7.17;;;;;;;;;;5089075;28;20413;-75
2021/06/17 11:50:48;;;;;;;8.23;7.27;;;;;;;;;;5088962;28;20818;-74
2021/06/17 11:53:26;;;;;;;7.00;6.60;;;;;;;;;;5090834;28;20431;-74
2021/06/17 11:55:56;;;;;;;7.03;6.37;;;;;;;;;;5093623;28;20401;-76
2021/06/17 11:58:31;;;;;;;7.30;6.80;;;;;;;;;;5108816;28;20408;-74
2021/06/17 12:00:58;;;;;;;7.13;6.73;;;;;;;;;;5103759;28;20413;-74
2021/06/17 12:03:24;;;;;;;7.60;6.90;;;;;;;;;;5109873;28;20421;-75
2021/06/17 12:05:51;;;;;;;6.47;5.97;;;;;;;;;;5103454;28;20409;-75
2021/06/17 12:08:17;;;;;;;6.97;6.57;;;;;;;;;;5092609;28;20465;-73
2021/06/17 12:10:47;;;;;;;12.20;11.30;;;;;;;;;;5093330;28;20486;-74
2021/06/17 12:13:13;;;;;;;7.50;7.03;;;;;;;;;;5092714;28;20550;-72
2021/06/17 12:15:41;;;;;;;7.20;6.67;;;;;;;;;;5092803;28;20500;-77
2021/06/17 12:18:09;;;;;;;6.37;5.90;;;;;;;;;;5092634;28;20409;-74
2021/06/17 12:20:39;;;;;;;6.30;6.00;;;;;;;;;;5092902;28;20421;-76
2021/06/17 12:23:08;;;;;;;7.10;6.53;;;;;;;;;;5092720;28;20556;-76
2021/06/17 12:25:35;;;;;;;8.37;7.87;;;;;;;;;;5093366;28;20417;-73
2021/06/17 12:28:03;;;;;;;7.07;6.37;;;;;;;;;;5096383;28;20465;-75
2021/06/17 12:30:39;;;;;;;7.00;6.60;;;;;;;;;;5099800;28;20591;-76
2021/06/17 12:33:09;;;;;;;6.80;6.40;;;;;;;;;;5100200;28;20543;-76
2021/06/17 12:35:36;;;;;;;6.50;6.10;;;;;;;;;;5113079;27;20838;-76
2021/06/17 12:38:03;;;;;;;7.00;6.50;;;;;;;;;;5102898;28;20441;-73
2021/06/17 12:40:30;;;;;;;7.00;6.60;;;;;;;;;;5092501;28;20492;-72
2021/06/17 12:43:05;;;;;;;6.63;6.23;;;;;;;;;;5092346;28;20429;-76
2021/06/17 12:45:32;;;;;;;6.20;5.80;;;;;;;;;;5092419;28;20440;-75
2021/06/17 12:48:06;;;;;;;5.83;5.43;;;;;;;;;;5092304;28;20469;-73
2021/06/17 12:53:17;;;;;;;6.70;6.30;;;;;;;;;;5092388;28;20424;-77
2021/06/17 12:55:45;;;;;;;6.53;6.10;;;;;;;;;;5092703;28;20449;-73
2021/06/17 12:58:13;;;;;;;7.43;6.73;;;;;;;;;;5091999;28;20413;-75
2021/06/17 13:00:40;;;;;;;6.07;5.67;;;;;;;;;;5092327;28;20421;-74
2021/06/17 13:03:06;;;;;;;6.10;5.70;;;;;;;;;;5092672;28;20437;-73
2021/06/17 13:05:41;;;;;;;6.60;6.10;;;;;;;;;;5111191;28;20432;-73
2021/06/17 13:08:12;;;;;;;7.07;6.57;;;;;;;;;;5112492;27;20432;-76
2021/06/17 13:10:42;;;;;;;6.50;6.00;;;;;;;;;;5112459;28;20475;-76
2021/06/17 13:13:16;;;;;;;6.70;6.20;;;;;;;;;;5097770;28;20494;-73
2021/06/17 13:15:42;;;;;;;7.10;6.60;;;;;;;;;;5091916;28;20414;-76
2021/06/17 13:18:10;;;;;;;7.20;6.60;;;;;;;;;;5091645;28;21004;-74
2021/06/17 13:20:37;;;;;;;7.30;6.60;;;;;;;;;;5091638;28;20421;-74
2021/06/17 13:23:09;;;;;;;7.70;7.20;;;;;;;;;;5092326;28;21079;-77
2021/06/17 13:25:36;;;;;;;7.70;7.20;;;;;;;;;;5090914;28;20433;-77
2021/06/17 13:28:22;;;;;;;8.03;7.53;;;;;;;;;;5091867;28;20428;-75
2021/06/17 13:30:48;;;;;;;6.90;6.50;;;;;;;;;;5091341;28;20468;-76
2021/06/17 13:33:14;;;;;;;7.40;6.90;;;;;;;;;;5107207;28;20465;-74
2021/06/17 13:35:40;;;;;;;6.90;6.50;;;;;;;;;;5098172;28;20419;-75
2021/06/17 13:38:06;;;;;;;6.77;6.37;;;;;;;;;;5096891;28;20504;-75
2021/06/17 13:40:32;;;;;;;7.80;7.30;;;;;;;;;;5091009;28;20492;-75
2021/06/17 13:42:59;;;;;;;7.17;6.80;;;;;;;;;;5090810;28;20978;-73
2021/06/17 13:45:26;;;;;;;8.93;8.03;;;;;;;;;;5091193;28;20913;-74
2021/06/17 13:47:53;;;;;;;7.00;6.43;;;;;;;;;;5091289;28;20409;-74
2021/06/17 13:50:19;;;;;;;7.43;6.43;;;;;;;;;;5091360;28;20523;-75
2021/06/17 13:52:45;;;;;;;7.70;7.13;;;;;;;;;;5091095;28;20479;-74
2021/06/17 13:55:15;;;;;;;6.90;6.50;;;;;;;;;;5091171;28;20409;-75
2021/06/17 13:57:44;;;;;;;7.00;6.50;;;;;;;;;;5090729;28;20843;-77
2021/06/17 14:00:14;;;;;;;7.13;6.67;;;;;;;;;;5091075;28;20902;-74
2021/06/17 14:02:41;;;;;;;7.00;6.03;;;;;;;;;;5090935;28;20536;-74
2021/06/17 14:05:08;;;;;;;6.40;6.00;;;;;;;;;;5108330;28;20827;-76
2021/06/17 14:07:34;;;;;;;6.57;6.07;;;;;;;;;;5110857;28;20443;-76
2021/06/17 14:10:00;;;;;;;6.00;5.70;;;;;;;;;;5110983;28;20460;-77
2021/06/17 14:12:29;;;;;;;6.23;5.83;;;;;;;;;;5103473;28;20469;-77
2021/06/17 14:14:57;;;;;;;7.03;6.23;;;;;;;;;;5090428;28;20570;-74
2021/06/17 14:17:23;;;;;;;6.00;5.70;;;;;;;;;;5090302;28;20438;-75
2021/06/17 14:19:50;;;;;;;6.80;6.40;;;;;;;;;;5090502;28;20420;-76
2021/06/17 14:22:16;;;;;;;6.30;5.73;;;;;;;;;;5090439;28;20447;-74
2021/06/17 14:24:42;;;;;;;6.60;6.10;;;;;;;;;;5090102;28;20910;-74
2021/06/17 14:27:08;;;;;;;7.70;7.20;;;;;;;;;;5090418;28;20500;-75
2021/06/17 14:29:34;;;;;;;7.27;6.53;;;;;;;;;;5103675;28;20882;-76
2021/06/17 14:32:00;;;;;;;6.43;6.03;;;;;;;;;;5095133;28;20790;-77
2021/06/17 14:34:28;;;;;;;6.47;5.87;;;;;;;;;;5110309;28;20418;-77
2021/06/17 14:36:54;;;;;;;5.30;5.00;;;;;;;;;;5110541;28;20894;-77
2021/06/17 14:39:20;;;;;;;6.40;5.90;;;;;;;;;;5092661;28;20459;-76
2021/06/17 14:41:46;;;;;;;6.10;5.60;;;;;;;;;;5089991;28;20489;-75
2021/06/17 14:44:16;;;;;;;5.57;5.27;;;;;;;;;;5089890;28;20417;-76
2021/06/17 14:46:42;;;;;;;5.70;5.20;;;;;;;;;;5090021;28;20912;-73
2021/06/17 14:49:08;;;;;;;6.10;5.70;;;;;;;;;;5089824;28;20465;-76